sensor_id;sensor_type;location;lat;lon;timestamp;P1;durP1;ratioP1;P2;durP2;ratioP2
40959;SDS011;27842;52.272;8.052;2023-04-24T00:00:56;1.23;;;0.80;;
40959;SDS011;27842;52.272;8.052;2023-04-24T00:03:23;1.95;;;0.98;;
40959;SDS011;27842;52.272;8.052;2023-04-24T00:05:49;1.55;;;1.00;;
40959;SDS011;27842;52.272;8.052;2023-04-24T00:08:16;1.08;;;0.98;;
40959;SDS011;27842;52.272;8.052;2023-04-24T00:10:42;1.40;;;1.20;;
40959;SDS011;27842;52.272;8.052;2023-04-24T00:13:07;2.72;;;1.20;;
40959;SDS011;27842;52.272;8.052;2023-04-24T00:15:33;1.92;;;1.20;;
40959;SDS011;27842;52.272;8.052;2023-04-24T00:17:59;1.67;;;1.20;;
40959;SDS011;27842;52.272;8.052;2023-04-24T00:20:26;2.72;;;1.25;;
40959;SDS011;27842;52.272;8.052;2023-04-24T00:22:53;2.30;;;1.38;;
40959;SDS011;27842;52.272;8.052;2023-04-24T00:25:18;1.88;;;1.33;;
40959;SDS011;27842;52.272;8.052;2023-04-24T00:27:44;2.13;;;1.30;;
40959;SDS011;27842;52.272;8.052;2023-04-24T00:30:10;3.05;;;1.60;;
40959;SDS011;27842;52.272;8.052;2023-04-24T00:32:35;4.03;;;1.35;;
40959;SDS011;27842;52.272;8.052;2023-04-24T00:35:01;2.10;;;1.30;;
40959;SDS011;27842;52.272;8.052;2023-04-24T00:37:27;2.05;;;1.42;;
40959;SDS011;27842;52.272;8.052;2023-04-24T00:39:53;3.20;;;1.50;;
40959;SDS011;27842;52.272;8.052;2023-04-24T00:42:19;2.55;;;1.42;;
40959;SDS011;27842;52.272;8.052;2023-04-24T00:44:45;2.92;;;1.30;;
40959;SDS011;27842;52.272;8.052;2023-04-24T00:47:11;1.85;;;1.27;;
40959;SDS011;27842;52.272;8.052;2023-04-24T00:49:37;3.42;;;1.40;;
40959;SDS011;27842;52.272;8.052;2023-04-24T00:52:03;3.67;;;1.42;;
40959;SDS011;27842;52.272;8.052;2023-04-24T00:54:32;2.90;;;1.58;;
40959;SDS011;27842;52.272;8.052;2023-04-24T00:56:58;3.22;;;1.60;;
40959;SDS011;27842;52.272;8.052;2023-04-24T00:59:23;2.65;;;1.40;;
40959;SDS011;27842;52.272;8.052;2023-04-24T01:01:49;1.75;;;1.30;;
40959;SDS011;27842;52.272;8.052;2023-04-24T01:04:16;2.97;;;1.42;;
40959;SDS011;27842;52.272;8.052;2023-04-24T01:06:43;2.38;;;1.50;;
40959;SDS011;27842;52.272;8.052;2023-04-24T01:09:10;3.28;;;1.20;;
40959;SDS011;27842;52.272;8.052;2023-04-24T01:11:37;5.45;;;1.30;;
40959;SDS011;27842;52.272;8.052;2023-04-24T01:14:02;2.03;;;1.02;;
40959;SDS011;27842;52.272;8.052;2023-04-24T01:16:29;2.17;;;1.20;;
40959;SDS011;27842;52.272;8.052;2023-04-24T01:18:54;3.47;;;1.23;;
40959;SDS011;27842;52.272;8.052;2023-04-24T01:21:20;4.03;;;1.25;;
40959;SDS011;27842;52.272;8.052;2023-04-24T01:23:46;2.45;;;1.20;;
40959;SDS011;27842;52.272;8.052;2023-04-24T01:26:13;2.63;;;1.27;;
40959;SDS011;27842;52.272;8.052;2023-04-24T01:28:41;6.38;;;1.33;;
40959;SDS011;27842;52.272;8.052;2023-04-24T01:31:07;3.08;;;1.40;;
40959;SDS011;27842;52.272;8.052;2023-04-24T01:33:33;4.28;;;1.50;;
40959;SDS011;27842;52.272;8.052;2023-04-24T01:35:59;2.53;;;1.33;;
40959;SDS011;27842;52.272;8.052;2023-04-24T01:38:25;2.40;;;1.20;;
40959;SDS011;27842;52.272;8.052;2023-04-24T01:40:50;3.25;;;1.50;;
40959;SDS011;27842;52.272;8.052;2023-04-24T01:43:16;2.50;;;1.35;;
40959;SDS011;27842;52.272;8.052;2023-04-24T01:45:43;3.45;;;1.25;;
40959;SDS011;27842;52.272;8.052;2023-04-24T01:48:08;2.38;;;1.00;;
40959;SDS011;27842;52.272;8.052;2023-04-24T01:50:34;2.53;;;1.08;;
40959;SDS011;27842;52.272;8.052;2023-04-24T01:53:00;2.30;;;1.17;;
40959;SDS011;27842;52.272;8.052;2023-04-24T01:55:26;2.70;;;1.30;;
40959;SDS011;27842;52.272;8.052;2023-04-24T01:57:52;2.65;;;1.13;;
40959;SDS011;27842;52.272;8.052;2023-04-24T02:00:21;2.90;;;1.13;;
40959;SDS011;27842;52.272;8.052;2023-04-24T02:02:46;2.33;;;1.23;;
40959;SDS011;27842;52.272;8.052;2023-04-24T02:05:12;3.30;;;1.20;;
40959;SDS011;27842;52.272;8.052;2023-04-24T02:07:37;2.30;;;1.30;;
40959;SDS011;27842;52.272;8.052;2023-04-24T02:10:03;3.08;;;1.30;;
40959;SDS011;27842;52.272;8.052;2023-04-24T02:12:29;2.63;;;1.30;;
40959;SDS011;27842;52.272;8.052;2023-04-24T02:14:55;1.67;;;1.10;;
40959;SDS011;27842;52.272;8.052;2023-04-24T02:17:20;4.75;;;1.30;;
40959;SDS011;27842;52.272;8.052;2023-04-24T02:19:46;4.45;;;1.30;;
40959;SDS011;27842;52.272;8.052;2023-04-24T02:22:12;4.80;;;1.30;;
40959;SDS011;27842;52.272;8.052;2023-04-24T02:24:37;4.15;;;1.23;;
40959;SDS011;27842;52.272;8.052;2023-04-24T02:27:03;3.08;;;1.27;;
40959;SDS011;27842;52.272;8.052;2023-04-24T02:29:32;2.05;;;1.20;;
40959;SDS011;27842;52.272;8.052;2023-04-24T02:31:58;3.97;;;1.20;;
40959;SDS011;27842;52.272;8.052;2023-04-24T02:34:24;3.92;;;1.35;;
40959;SDS011;27842;52.272;8.052;2023-04-24T02:36:50;2.22;;;1.30;;
40959;SDS011;27842;52.272;8.052;2023-04-24T02:39:15;3.92;;;1.33;;
40959;SDS011;27842;52.272;8.052;2023-04-24T02:41:41;3.00;;;1.40;;
40959;SDS011;27842;52.272;8.052;2023-04-24T02:44:08;3.70;;;1.55;;
40959;SDS011;27842;52.272;8.052;2023-04-24T02:46:34;2.78;;;1.50;;
40959;SDS011;27842;52.272;8.052;2023-04-24T02:49:00;3.55;;;1.50;;
40959;SDS011;27842;52.272;8.052;2023-04-24T02:51:25;2.22;;;1.40;;
40959;SDS011;27842;52.272;8.052;2023-04-24T02:53:51;3.50;;;1.70;;
40959;SDS011;27842;52.272;8.052;2023-04-24T02:56:17;3.42;;;1.50;;
40959;SDS011;27842;52.272;8.052;2023-04-24T02:58:43;2.63;;;1.40;;
40959;SDS011;27842;52.272;8.052;2023-04-24T03:01:08;3.72;;;1.50;;
40959;SDS011;27842;52.272;8.052;2023-04-24T03:03:37;2.70;;;1.63;;
40959;SDS011;27842;52.272;8.052;2023-04-24T03:06:03;2.35;;;1.65;;
40959;SDS011;27842;52.272;8.052;2023-04-24T03:08:30;3.00;;;1.80;;
40959;SDS011;27842;52.272;8.052;2023-04-24T03:10:56;3.35;;;2.00;;
40959;SDS011;27842;52.272;8.052;2023-04-24T03:13:22;6.25;;;2.17;;
40959;SDS011;27842;52.272;8.052;2023-04-24T03:15:48;3.28;;;1.70;;
40959;SDS011;27842;52.272;8.052;2023-04-24T03:18:13;6.72;;;2.00;;
40959;SDS011;27842;52.272;8.052;2023-04-24T03:20:39;6.13;;;2.00;;
40959;SDS011;27842;52.272;8.052;2023-04-24T03:23:04;6.13;;;2.05;;
40959;SDS011;27842;52.272;8.052;2023-04-24T03:25:30;7.82;;;2.08;;
40959;SDS011;27842;52.272;8.052;2023-04-24T03:27:56;6.85;;;2.20;;
40959;SDS011;27842;52.272;8.052;2023-04-24T03:30:21;3.92;;;2.08;;
40959;SDS011;27842;52.272;8.052;2023-04-24T03:32:47;5.38;;;1.95;;
40959;SDS011;27842;52.272;8.052;2023-04-24T03:35:13;4.18;;;2.13;;
40959;SDS011;27842;52.272;8.052;2023-04-24T03:37:38;4.40;;;2.13;;
40959;SDS011;27842;52.272;8.052;2023-04-24T03:40:04;4.53;;;2.13;;
40959;SDS011;27842;52.272;8.052;2023-04-24T03:42:31;4.70;;;2.10;;
40959;SDS011;27842;52.272;8.052;2023-04-24T03:44:57;5.95;;;2.58;;
40959;SDS011;27842;52.272;8.052;2023-04-24T03:47:23;6.85;;;2.58;;
40959;SDS011;27842;52.272;8.052;2023-04-24T03:49:48;6.75;;;2.60;;
40959;SDS011;27842;52.272;8.052;2023-04-24T03:52:14;6.78;;;2.22;;
40959;SDS011;27842;52.272;8.052;2023-04-24T03:54:39;8.27;;;3.67;;
40959;SDS011;27842;52.272;8.052;2023-04-24T03:57:05;7.05;;;3.10;;
40959;SDS011;27842;52.272;8.052;2023-04-24T03:59:31;7.82;;;3.30;;
40959;SDS011;27842;52.272;8.052;2023-04-24T04:01:56;8.88;;;3.17;;
40959;SDS011;27842;52.272;8.052;2023-04-24T04:04:22;6.65;;;3.45;;
40959;SDS011;27842;52.272;8.052;2023-04-24T04:06:47;9.57;;;4.15;;
40959;SDS011;27842;52.272;8.052;2023-04-24T04:09:13;9.02;;;4.13;;
40959;SDS011;27842;52.272;8.052;2023-04-24T04:11:39;9.70;;;4.35;;
40959;SDS011;27842;52.272;8.052;2023-04-24T04:14:06;10.07;;;5.05;;
40959;SDS011;27842;52.272;8.052;2023-04-24T04:16:31;10.80;;;5.18;;
40959;SDS011;27842;52.272;8.052;2023-04-24T04:18:57;12.43;;;5.70;;
40959;SDS011;27842;52.272;8.052;2023-04-24T04:21:23;13.00;;;5.55;;
40959;SDS011;27842;52.272;8.052;2023-04-24T04:23:49;11.20;;;5.30;;
40959;SDS011;27842;52.272;8.052;2023-04-24T04:26:14;12.55;;;5.82;;
40959;SDS011;27842;52.272;8.052;2023-04-24T04:28:40;12.80;;;5.70;;
40959;SDS011;27842;52.272;8.052;2023-04-24T04:31:05;12.82;;;5.53;;
40959;SDS011;27842;52.272;8.052;2023-04-24T04:33:32;12.95;;;6.10;;
40959;SDS011;27842;52.272;8.052;2023-04-24T04:35:58;13.40;;;6.05;;
40959;SDS011;27842;52.272;8.052;2023-04-24T04:38:25;14.05;;;6.90;;
40959;SDS011;27842;52.272;8.052;2023-04-24T04:40:54;13.65;;;6.90;;
40959;SDS011;27842;52.272;8.052;2023-04-24T04:43:22;14.02;;;6.80;;
40959;SDS011;27842;52.272;8.052;2023-04-24T04:45:49;15.20;;;7.22;;
40959;SDS011;27842;52.272;8.052;2023-04-24T04:48:16;17.10;;;7.38;;
40959;SDS011;27842;52.272;8.052;2023-04-24T04:50:42;14.43;;;7.30;;
40959;SDS011;27842;52.272;8.052;2023-04-24T04:53:08;14.60;;;7.22;;
40959;SDS011;27842;52.272;8.052;2023-04-24T04:55:34;16.42;;;7.25;;
40959;SDS011;27842;52.272;8.052;2023-04-24T04:58:00;17.30;;;7.50;;
40959;SDS011;27842;52.272;8.052;2023-04-24T05:00:26;16.55;;;7.90;;
40959;SDS011;27842;52.272;8.052;2023-04-24T05:02:52;16.80;;;8.30;;
40959;SDS011;27842;52.272;8.052;2023-04-24T05:05:17;15.75;;;7.45;;
40959;SDS011;27842;52.272;8.052;2023-04-24T05:07:44;16.88;;;8.73;;
40959;SDS011;27842;52.272;8.052;2023-04-24T05:10:10;18.25;;;8.82;;
40959;SDS011;27842;52.272;8.052;2023-04-24T05:12:36;17.30;;;8.70;;
40959;SDS011;27842;52.272;8.052;2023-04-24T05:15:01;18.23;;;9.48;;
40959;SDS011;27842;52.272;8.052;2023-04-24T05:17:28;17.88;;;8.88;;
40959;SDS011;27842;52.272;8.052;2023-04-24T05:19:54;16.30;;;8.60;;
40959;SDS011;27842;52.272;8.052;2023-04-24T05:22:19;18.88;;;8.93;;
40959;SDS011;27842;52.272;8.052;2023-04-24T05:24:46;17.40;;;9.32;;
40959;SDS011;27842;52.272;8.052;2023-04-24T05:27:12;18.27;;;9.32;;
40959;SDS011;27842;52.272;8.052;2023-04-24T05:29:37;16.83;;;9.23;;
40959;SDS011;27842;52.272;8.052;2023-04-24T05:32:03;18.48;;;9.43;;
40959;SDS011;27842;52.272;8.052;2023-04-24T05:34:29;17.58;;;9.30;;
40959;SDS011;27842;52.272;8.052;2023-04-24T05:36:55;19.55;;;9.95;;
40959;SDS011;27842;52.272;8.052;2023-04-24T05:39:21;18.83;;;9.77;;
40959;SDS011;27842;52.272;8.052;2023-04-24T05:41:46;19.13;;;10.65;;
40959;SDS011;27842;52.272;8.052;2023-04-24T05:44:12;19.85;;;10.88;;
40959;SDS011;27842;52.272;8.052;2023-04-24T05:46:37;21.83;;;11.35;;
40959;SDS011;27842;52.272;8.052;2023-04-24T05:49:03;20.92;;;10.98;;
40959;SDS011;27842;52.272;8.052;2023-04-24T05:51:29;20.60;;;10.93;;
40959;SDS011;27842;52.272;8.052;2023-04-24T05:53:55;22.05;;;11.95;;
40959;SDS011;27842;52.272;8.052;2023-04-24T05:56:21;22.45;;;12.10;;
40959;SDS011;27842;52.272;8.052;2023-04-24T05:58:46;21.88;;;11.93;;
40959;SDS011;27842;52.272;8.052;2023-04-24T06:01:12;22.13;;;12.88;;
40959;SDS011;27842;52.272;8.052;2023-04-24T06:03:39;21.30;;;12.40;;
40959;SDS011;27842;52.272;8.052;2023-04-24T06:06:06;23.98;;;12.45;;
40959;SDS011;27842;52.272;8.052;2023-04-24T06:08:32;23.77;;;13.35;;
40959;SDS011;27842;52.272;8.052;2023-04-24T06:10:58;23.85;;;13.93;;
40959;SDS011;27842;52.272;8.052;2023-04-24T06:13:24;24.40;;;13.23;;
40959;SDS011;27842;52.272;8.052;2023-04-24T06:15:50;21.35;;;13.35;;
40959;SDS011;27842;52.272;8.052;2023-04-24T06:18:16;21.95;;;13.10;;
40959;SDS011;27842;52.272;8.052;2023-04-24T06:20:41;24.60;;;13.77;;
40959;SDS011;27842;52.272;8.052;2023-04-24T06:23:07;23.25;;;13.43;;
40959;SDS011;27842;52.272;8.052;2023-04-24T06:25:33;22.95;;;13.85;;
40959;SDS011;27842;52.272;8.052;2023-04-24T06:27:59;24.58;;;13.45;;
40959;SDS011;27842;52.272;8.052;2023-04-24T06:30:24;22.88;;;13.18;;
40959;SDS011;27842;52.272;8.052;2023-04-24T06:32:50;23.90;;;13.45;;
40959;SDS011;27842;52.272;8.052;2023-04-24T06:35:16;26.00;;;13.05;;
40959;SDS011;27842;52.272;8.052;2023-04-24T06:37:42;23.38;;;13.57;;
40959;SDS011;27842;52.272;8.052;2023-04-24T06:40:08;23.10;;;13.35;;
40959;SDS011;27842;52.272;8.052;2023-04-24T06:42:35;23.33;;;13.98;;
40959;SDS011;27842;52.272;8.052;2023-04-24T06:45:01;22.25;;;12.85;;
40959;SDS011;27842;52.272;8.052;2023-04-24T06:47:27;24.70;;;13.07;;
40959;SDS011;27842;52.272;8.052;2023-04-24T06:49:52;23.55;;;13.73;;
40959;SDS011;27842;52.272;8.052;2023-04-24T06:52:18;22.23;;;12.52;;
40959;SDS011;27842;52.272;8.052;2023-04-24T06:54:44;24.75;;;12.55;;
40959;SDS011;27842;52.272;8.052;2023-04-24T06:57:10;23.67;;;12.93;;
40959;SDS011;27842;52.272;8.052;2023-04-24T06:59:36;21.40;;;13.02;;
40959;SDS011;27842;52.272;8.052;2023-04-24T07:02:02;20.38;;;11.98;;
40959;SDS011;27842;52.272;8.052;2023-04-24T07:04:28;21.92;;;11.77;;
40959;SDS011;27842;52.272;8.052;2023-04-24T07:06:54;25.40;;;13.13;;
40959;SDS011;27842;52.272;8.052;2023-04-24T07:09:20;23.90;;;11.85;;
40959;SDS011;27842;52.272;8.052;2023-04-24T07:11:47;23.67;;;11.38;;
40959;SDS011;27842;52.272;8.052;2023-04-24T07:14:13;19.42;;;11.13;;
40959;SDS011;27842;52.272;8.052;2023-04-24T07:16:39;19.40;;;11.65;;
40959;SDS011;27842;52.272;8.052;2023-04-24T07:19:05;23.90;;;11.68;;
40959;SDS011;27842;52.272;8.052;2023-04-24T07:21:31;18.92;;;10.85;;
40959;SDS011;27842;52.272;8.052;2023-04-24T07:23:57;22.98;;;11.25;;
40959;SDS011;27842;52.272;8.052;2023-04-24T07:26:23;20.98;;;11.48;;
40959;SDS011;27842;52.272;8.052;2023-04-24T07:28:50;20.67;;;10.88;;
40959;SDS011;27842;52.272;8.052;2023-04-24T07:31:15;19.40;;;10.55;;
40959;SDS011;27842;52.272;8.052;2023-04-24T07:33:41;18.85;;;9.75;;
40959;SDS011;27842;52.272;8.052;2023-04-24T07:36:07;19.10;;;10.55;;
40959;SDS011;27842;52.272;8.052;2023-04-24T07:38:44;21.70;;;10.75;;
40959;SDS011;27842;52.272;8.052;2023-04-24T07:41:10;21.58;;;11.23;;
40959;SDS011;27842;52.272;8.052;2023-04-24T07:43:36;19.27;;;10.38;;
40959;SDS011;27842;52.272;8.052;2023-04-24T07:46:02;21.52;;;11.00;;
40959;SDS011;27842;52.272;8.052;2023-04-24T07:48:28;18.40;;;10.75;;
40959;SDS011;27842;52.272;8.052;2023-04-24T07:50:53;19.75;;;9.90;;
40959;SDS011;27842;52.272;8.052;2023-04-24T07:53:19;20.15;;;10.02;;
40959;SDS011;27842;52.272;8.052;2023-04-24T07:55:45;19.02;;;10.07;;
40959;SDS011;27842;52.272;8.052;2023-04-24T07:58:11;18.65;;;10.20;;
40959;SDS011;27842;52.272;8.052;2023-04-24T08:00:37;18.25;;;9.70;;
40959;SDS011;27842;52.272;8.052;2023-04-24T08:03:03;19.52;;;9.82;;
40959;SDS011;27842;52.272;8.052;2023-04-24T08:05:28;16.88;;;9.27;;
40959;SDS011;27842;52.272;8.052;2023-04-24T08:07:54;19.73;;;10.00;;
40959;SDS011;27842;52.272;8.052;2023-04-24T08:10:21;19.85;;;9.75;;
40959;SDS011;27842;52.272;8.052;2023-04-24T08:12:47;18.23;;;9.95;;
40959;SDS011;27842;52.272;8.052;2023-04-24T08:15:13;17.50;;;9.10;;
40959;SDS011;27842;52.272;8.052;2023-04-24T08:17:39;19.23;;;9.63;;
40959;SDS011;27842;52.272;8.052;2023-04-24T08:20:05;16.25;;;9.57;;
40959;SDS011;27842;52.272;8.052;2023-04-24T08:22:35;15.55;;;8.77;;
40959;SDS011;27842;52.272;8.052;2023-04-24T08:25:01;17.73;;;9.18;;
40959;SDS011;27842;52.272;8.052;2023-04-24T08:27:27;18.05;;;9.20;;
40959;SDS011;27842;52.272;8.052;2023-04-24T08:29:53;17.45;;;8.75;;
40959;SDS011;27842;52.272;8.052;2023-04-24T08:32:19;16.48;;;8.52;;
40959;SDS011;27842;52.272;8.052;2023-04-24T08:34:44;17.40;;;9.18;;
40959;SDS011;27842;52.272;8.052;2023-04-24T08:37:11;16.45;;;8.63;;
40959;SDS011;27842;52.272;8.052;2023-04-24T08:39:37;16.02;;;8.15;;
40959;SDS011;27842;52.272;8.052;2023-04-24T08:42:03;15.10;;;7.70;;
40959;SDS011;27842;52.272;8.052;2023-04-24T08:44:32;14.38;;;7.22;;
40959;SDS011;27842;52.272;8.052;2023-04-24T08:46:59;15.45;;;7.95;;
40959;SDS011;27842;52.272;8.052;2023-04-24T08:49:26;15.73;;;7.50;;
40959;SDS011;27842;52.272;8.052;2023-04-24T08:51:53;16.30;;;7.82;;
40959;SDS011;27842;52.272;8.052;2023-04-24T08:54:18;15.27;;;6.82;;
40959;SDS011;27842;52.272;8.052;2023-04-24T08:56:44;14.60;;;7.25;;
40959;SDS011;27842;52.272;8.052;2023-04-24T08:59:12;13.98;;;7.30;;
40959;SDS011;27842;52.272;8.052;2023-04-24T09:01:38;13.18;;;6.55;;
40959;SDS011;27842;52.272;8.052;2023-04-24T09:04:05;12.90;;;6.10;;
40959;SDS011;27842;52.272;8.052;2023-04-24T09:06:34;11.93;;;5.50;;
40959;SDS011;27842;52.272;8.052;2023-04-24T09:09:01;12.18;;;5.85;;
40959;SDS011;27842;52.272;8.052;2023-04-24T09:11:29;11.02;;;5.38;;
40959;SDS011;27842;52.272;8.052;2023-04-24T09:13:58;13.18;;;5.63;;
40959;SDS011;27842;52.272;8.052;2023-04-24T09:16:25;12.93;;;5.97;;
40959;SDS011;27842;52.272;8.052;2023-04-24T09:18:51;11.75;;;5.10;;
40959;SDS011;27842;52.272;8.052;2023-04-24T09:21:18;12.00;;;5.28;;
40959;SDS011;27842;52.272;8.052;2023-04-24T09:23:46;12.30;;;5.88;;
40959;SDS011;27842;52.272;8.052;2023-04-24T09:26:12;12.27;;;5.72;;
40959;SDS011;27842;52.272;8.052;2023-04-24T09:28:39;12.13;;;5.75;;
40959;SDS011;27842;52.272;8.052;2023-04-24T09:31:11;12.50;;;5.20;;
40959;SDS011;27842;52.272;8.052;2023-04-24T09:33:39;11.63;;;5.50;;
40959;SDS011;27842;52.272;8.052;2023-04-24T09:36:05;10.57;;;5.30;;
40959;SDS011;27842;52.272;8.052;2023-04-24T09:38:35;11.93;;;5.45;;
40959;SDS011;27842;52.272;8.052;2023-04-24T09:41:06;11.65;;;5.80;;
40959;SDS011;27842;52.272;8.052;2023-04-24T09:43:38;12.45;;;5.50;;
40959;SDS011;27842;52.272;8.052;2023-04-24T09:46:09;12.65;;;5.82;;
40959;SDS011;27842;52.272;8.052;2023-04-24T09:48:37;14.40;;;6.10;;
40959;SDS011;27842;52.272;8.052;2023-04-24T09:51:06;13.20;;;6.68;;
40959;SDS011;27842;52.272;8.052;2023-04-24T09:53:35;12.20;;;5.68;;
40959;SDS011;27842;52.272;8.052;2023-04-24T09:56:07;13.35;;;5.70;;
40959;SDS011;27842;52.272;8.052;2023-04-24T09:58:35;11.23;;;5.85;;
40959;SDS011;27842;52.272;8.052;2023-04-24T10:01:01;10.80;;;5.88;;
40959;SDS011;27842;52.272;8.052;2023-04-24T10:03:31;11.73;;;5.50;;
40959;SDS011;27842;52.272;8.052;2023-04-24T10:06:01;13.45;;;6.30;;
40959;SDS011;27842;52.272;8.052;2023-04-24T10:08:33;15.65;;;6.05;;
40959;SDS011;27842;52.272;8.052;2023-04-24T10:11:00;10.52;;;5.72;;
40959;SDS011;27842;52.272;8.052;2023-04-24T10:13:26;10.50;;;4.80;;
40959;SDS011;27842;52.272;8.052;2023-04-24T10:15:53;9.05;;;4.35;;
40959;SDS011;27842;52.272;8.052;2023-04-24T10:18:20;8.50;;;4.57;;
40959;SDS011;27842;52.272;8.052;2023-04-24T10:20:47;11.00;;;5.00;;
40959;SDS011;27842;52.272;8.052;2023-04-24T10:23:13;11.77;;;4.80;;
40959;SDS011;27842;52.272;8.052;2023-04-24T10:25:41;10.90;;;5.35;;
40959;SDS011;27842;52.272;8.052;2023-04-24T10:28:12;11.63;;;5.28;;
40959;SDS011;27842;52.272;8.052;2023-04-24T10:30:39;12.27;;;5.22;;
40959;SDS011;27842;52.272;8.052;2023-04-24T10:33:08;7.30;;;3.78;;
40959;SDS011;27842;52.272;8.052;2023-04-24T10:35:34;6.43;;;3.10;;
40959;SDS011;27842;52.272;8.052;2023-04-24T10:38:05;6.80;;;3.00;;
40959;SDS011;27842;52.272;8.052;2023-04-24T10:40:34;6.05;;;3.20;;
40959;SDS011;27842;52.272;8.052;2023-04-24T10:43:07;5.20;;;2.53;;
40959;SDS011;27842;52.272;8.052;2023-04-24T10:45:36;10.70;;;3.10;;
40959;SDS011;27842;52.272;8.052;2023-04-24T10:48:03;3.72;;;2.05;;
40959;SDS011;27842;52.272;8.052;2023-04-24T10:53:14;5.70;;;1.95;;
40959;SDS011;27842;52.272;8.052;2023-04-24T10:55:42;5.72;;;2.20;;
40959;SDS011;27842;52.272;8.052;2023-04-24T10:58:15;4.10;;;2.00;;
40959;SDS011;27842;52.272;8.052;2023-04-24T11:00:55;6.78;;;2.10;;
40959;SDS011;27842;52.272;8.052;2023-04-24T11:03:23;8.98;;;1.85;;
40959;SDS011;27842;52.272;8.052;2023-04-24T11:08:25;5.40;;;1.67;;
40959;SDS011;27842;52.272;8.052;2023-04-24T11:11:00;4.97;;;1.73;;
40959;SDS011;27842;52.272;8.052;2023-04-24T11:16:32;6.75;;;1.70;;
40959;SDS011;27842;52.272;8.052;2023-04-24T11:19:23;4.18;;;1.40;;
40959;SDS011;27842;52.272;8.052;2023-04-24T11:24:39;3.42;;;1.08;;
40959;SDS011;27842;52.272;8.052;2023-04-24T11:27:15;3.65;;;1.40;;
40959;SDS011;27842;52.272;8.052;2023-04-24T11:29:58;3.45;;;1.40;;
40959;SDS011;27842;52.272;8.052;2023-04-24T11:35:04;13.15;;;4.43;;
40959;SDS011;27842;52.272;8.052;2023-04-24T11:37:47;13.25;;;3.45;;
40959;SDS011;27842;52.272;8.052;2023-04-24T11:40:15;6.25;;;2.40;;
40959;SDS011;27842;52.272;8.052;2023-04-24T11:42:48;8.25;;;2.47;;
40959;SDS011;27842;52.272;8.052;2023-04-24T11:45:22;8.68;;;3.15;;
40959;SDS011;27842;52.272;8.052;2023-04-24T11:47:50;9.85;;;4.13;;
40959;SDS011;27842;52.272;8.052;2023-04-24T11:50:17;13.55;;;4.50;;
40959;SDS011;27842;52.272;8.052;2023-04-24T11:52:45;15.13;;;5.10;;
40959;SDS011;27842;52.272;8.052;2023-04-24T11:57:51;13.55;;;5.70;;
40959;SDS011;27842;52.272;8.052;2023-04-24T12:00:28;13.05;;;5.15;;
40959;SDS011;27842;52.272;8.052;2023-04-24T12:03:08;13.65;;;5.20;;
40959;SDS011;27842;52.272;8.052;2023-04-24T12:05:36;14.52;;;5.05;;
40959;SDS011;27842;52.272;8.052;2023-04-24T12:08:03;14.32;;;5.35;;
40959;SDS011;27842;52.272;8.052;2023-04-24T12:10:29;14.25;;;5.82;;
40959;SDS011;27842;52.272;8.052;2023-04-24T12:12:57;13.68;;;5.18;;
40959;SDS011;27842;52.272;8.052;2023-04-24T12:15:23;14.30;;;5.20;;
40959;SDS011;27842;52.272;8.052;2023-04-24T12:17:53;14.48;;;5.40;;
40959;SDS011;27842;52.272;8.052;2023-04-24T12:20:23;16.63;;;5.72;;
40959;SDS011;27842;52.272;8.052;2023-04-24T12:22:54;14.27;;;5.15;;
40959;SDS011;27842;52.272;8.052;2023-04-24T12:25:22;14.68;;;5.25;;
40959;SDS011;27842;52.272;8.052;2023-04-24T12:28:09;12.80;;;4.65;;
40959;SDS011;27842;52.272;8.052;2023-04-24T12:30:40;11.23;;;4.60;;
40959;SDS011;27842;52.272;8.052;2023-04-24T12:33:09;15.07;;;5.70;;
40959;SDS011;27842;52.272;8.052;2023-04-24T12:35:35;16.80;;;5.22;;
40959;SDS011;27842;52.272;8.052;2023-04-24T12:38:11;15.52;;;4.50;;
40959;SDS011;27842;52.272;8.052;2023-04-24T12:40:39;16.10;;;4.13;;
40959;SDS011;27842;52.272;8.052;2023-04-24T12:43:13;16.17;;;4.10;;
40959;SDS011;27842;52.272;8.052;2023-04-24T12:45:40;15.27;;;4.15;;
40959;SDS011;27842;52.272;8.052;2023-04-24T12:48:05;14.13;;;4.15;;
40959;SDS011;27842;52.272;8.052;2023-04-24T12:50:31;13.63;;;3.47;;
40959;SDS011;27842;52.272;8.052;2023-04-24T12:52:57;12.57;;;3.58;;
40959;SDS011;27842;52.272;8.052;2023-04-24T12:55:22;16.52;;;4.78;;
40959;SDS011;27842;52.272;8.052;2023-04-24T12:57:48;16.33;;;4.72;;
40959;SDS011;27842;52.272;8.052;2023-04-24T13:00:14;14.48;;;4.38;;
40959;SDS011;27842;52.272;8.052;2023-04-24T13:02:40;14.20;;;4.45;;
40959;SDS011;27842;52.272;8.052;2023-04-24T13:05:05;18.73;;;5.82;;
40959;SDS011;27842;52.272;8.052;2023-04-24T13:07:32;20.25;;;4.93;;
40959;SDS011;27842;52.272;8.052;2023-04-24T13:09:59;10.10;;;3.20;;
40959;SDS011;27842;52.272;8.052;2023-04-24T13:12:24;13.73;;;3.50;;
40959;SDS011;27842;52.272;8.052;2023-04-24T13:14:51;14.70;;;3.78;;
40959;SDS011;27842;52.272;8.052;2023-04-24T13:17:17;14.25;;;4.53;;
40959;SDS011;27842;52.272;8.052;2023-04-24T13:19:46;17.58;;;4.93;;
40959;SDS011;27842;52.272;8.052;2023-04-24T13:22:17;8.50;;;3.72;;
40959;SDS011;27842;52.272;8.052;2023-04-24T13:24:46;14.48;;;3.90;;
40959;SDS011;27842;52.272;8.052;2023-04-24T13:27:13;14.07;;;3.85;;
40959;SDS011;27842;52.272;8.052;2023-04-24T13:29:40;13.90;;;3.92;;
40959;SDS011;27842;52.272;8.052;2023-04-24T13:32:06;14.18;;;3.70;;
40959;SDS011;27842;52.272;8.052;2023-04-24T13:34:31;10.45;;;3.83;;
40959;SDS011;27842;52.272;8.052;2023-04-24T13:36:57;13.45;;;3.65;;
40959;SDS011;27842;52.272;8.052;2023-04-24T13:39:23;12.70;;;3.38;;
40959;SDS011;27842;52.272;8.052;2023-04-24T13:41:49;16.17;;;4.00;;
40959;SDS011;27842;52.272;8.052;2023-04-24T13:44:16;15.50;;;4.38;;
40959;SDS011;27842;52.272;8.052;2023-04-24T13:46:43;15.23;;;3.88;;
40959;SDS011;27842;52.272;8.052;2023-04-24T13:49:11;16.83;;;4.40;;
40959;SDS011;27842;52.272;8.052;2023-04-24T13:51:37;13.35;;;3.65;;
40959;SDS011;27842;52.272;8.052;2023-04-24T13:54:03;13.55;;;3.70;;
40959;SDS011;27842;52.272;8.052;2023-04-24T13:56:29;12.25;;;3.42;;
40959;SDS011;27842;52.272;8.052;2023-04-24T13:59:14;15.48;;;4.03;;
40959;SDS011;27842;52.272;8.052;2023-04-24T14:01:40;13.10;;;4.35;;
40959;SDS011;27842;52.272;8.052;2023-04-24T14:04:05;16.25;;;4.18;;
40959;SDS011;27842;52.272;8.052;2023-04-24T14:06:31;13.98;;;3.78;;
40959;SDS011;27842;52.272;8.052;2023-04-24T14:08:57;11.43;;;3.35;;
40959;SDS011;27842;52.272;8.052;2023-04-24T14:11:22;10.68;;;3.10;;
40959;SDS011;27842;52.272;8.052;2023-04-24T14:13:48;14.40;;;3.55;;
40959;SDS011;27842;52.272;8.052;2023-04-24T14:16:14;17.73;;;4.40;;
40959;SDS011;27842;52.272;8.052;2023-04-24T14:18:39;16.30;;;3.60;;
40959;SDS011;27842;52.272;8.052;2023-04-24T14:21:05;10.45;;;3.28;;
40959;SDS011;27842;52.272;8.052;2023-04-24T14:23:31;11.23;;;3.10;;
40959;SDS011;27842;52.272;8.052;2023-04-24T14:25:57;12.18;;;3.30;;
40959;SDS011;27842;52.272;8.052;2023-04-24T14:28:23;11.77;;;3.25;;
40959;SDS011;27842;52.272;8.052;2023-04-24T14:30:49;10.93;;;3.22;;
40959;SDS011;27842;52.272;8.052;2023-04-24T14:33:15;13.00;;;3.42;;
40959;SDS011;27842;52.272;8.052;2023-04-24T14:35:41;13.00;;;4.00;;
40959;SDS011;27842;52.272;8.052;2023-04-24T14:38:07;13.60;;;3.22;;
40959;SDS011;27842;52.272;8.052;2023-04-24T14:40:33;12.00;;;3.20;;
40959;SDS011;27842;52.272;8.052;2023-04-24T14:42:59;8.15;;;3.20;;
40959;SDS011;27842;52.272;8.052;2023-04-24T14:45:25;13.82;;;3.50;;
40959;SDS011;27842;52.272;8.052;2023-04-24T14:47:52;11.00;;;3.08;;
40959;SDS011;27842;52.272;8.052;2023-04-24T14:50:18;10.82;;;2.78;;
40959;SDS011;27842;52.272;8.052;2023-04-24T14:52:44;8.75;;;3.40;;